sensor_id;sensor_type;location;lat;lon;timestamp;pressure;altitude;pressure_sealevel;temperature;humidity
5609;BME280;2826;51.354;9.588;2023-03-26T00:00:20;97180.22;;;9.08;82.38
5609;BME280;2826;51.354;9.588;2023-03-26T00:02:47;97175.75;;;9.11;82.34
5609;BME280;2826;51.354;9.588;2023-03-26T00:05:14;97169.81;;;9.09;82.52
5609;BME280;2826;51.354;9.588;2023-03-26T00:11:29;97179.78;;;9.17;82.51
5609;BME280;2826;51.354;9.588;2023-03-26T00:13:56;97180.69;;;9.16;82.38
5609;BME280;2826;51.354;9.588;2023-03-26T00:16:24;97167.22;;;9.09;82.40
5609;BME280;2826;51.354;9.588;2023-03-26T00:18:51;97185.50;;;9.24;82.11
5609;BME280;2826;51.354;9.588;2023-03-26T00:21:20;97152.78;;;9.05;82.02
5609;BME280;2826;51.354;9.588;2023-03-26T00:23:50;97192.16;;;9.28;81.82
5609;BME280;2826;51.354;9.588;2023-03-26T00:26:17;97200.84;;;9.27;82.02
5609;BME280;2826;51.354;9.588;2023-03-26T00:28:46;97195.91;;;9.22;82.30
5609;BME280;2826;51.354;9.588;2023-03-26T00:31:15;97198.72;;;9.18;82.13
5609;BME280;2826;51.354;9.588;2023-03-26T00:33:42;97193.34;;;9.22;81.86
5609;BME280;2826;51.354;9.588;2023-03-26T00:36:10;97201.91;;;9.23;82.23
5609;BME280;2826;51.354;9.588;2023-03-26T00:38:41;97200.09;;;9.25;82.09
5609;BME280;2826;51.354;9.588;2023-03-26T00:41:10;97199.25;;;9.24;82.60
5609;BME280;2826;51.354;9.588;2023-03-26T00:43:43;97190.81;;;9.21;82.40
5609;BME280;2826;51.354;9.588;2023-03-26T00:46:11;97210.22;;;9.30;82.22
5609;BME280;2826;51.354;9.588;2023-03-26T00:48:39;97201.56;;;9.31;81.81
5609;BME280;2826;51.354;9.588;2023-03-26T00:51:07;97183.53;;;9.11;82.02
5609;BME280;2826;51.354;9.588;2023-03-26T00:53:34;97200.03;;;9.26;81.69
5609;BME280;2826;51.354;9.588;2023-03-26T00:56:04;97204.03;;;9.32;81.75
5609;BME280;2826;51.354;9.588;2023-03-26T00:58:31;97205.72;;;9.33;81.64
5609;BME280;2826;51.354;9.588;2023-03-26T01:01:00;97199.41;;;9.39;81.44
5609;BME280;2826;51.354;9.588;2023-03-26T01:03:31;97204.66;;;9.37;81.23
5609;BME280;2826;51.354;9.588;2023-03-26T01:06:00;97204.88;;;9.33;81.21
5609;BME280;2826;51.354;9.588;2023-03-26T01:08:31;97199.41;;;9.39;81.10
5609;BME280;2826;51.354;9.588;2023-03-26T01:11:00;97206.41;;;9.37;81.49
5609;BME280;2826;51.354;9.588;2023-03-26T01:13:32;97210.91;;;9.33;81.44
5609;BME280;2826;51.354;9.588;2023-03-26T01:15:59;97212.03;;;9.27;81.15
5609;BME280;2826;51.354;9.588;2023-03-26T01:18:31;97203.91;;;9.35;80.99
5609;BME280;2826;51.354;9.588;2023-03-26T01:21:06;97209.13;;;9.34;81.25
5609;BME280;2826;51.354;9.588;2023-03-26T01:23:39;97206.56;;;9.34;80.71
5609;BME280;2826;51.354;9.588;2023-03-26T01:26:19;97210.06;;;9.33;80.27
5609;BME280;2826;51.354;9.588;2023-03-26T01:28:50;97209.66;;;9.40;80.10
5609;BME280;2826;51.354;9.588;2023-03-26T01:31:24;97209.06;;;9.35;79.84
5609;BME280;2826;51.354;9.588;2023-03-26T01:33:57;97212.56;;;9.34;79.43
5609;BME280;2826;51.354;9.588;2023-03-26T01:36:36;97214.31;;;9.34;79.18
5609;BME280;2826;51.354;9.588;2023-03-26T01:39:11;97207.25;;;9.37;79.27
5609;BME280;2826;51.354;9.588;2023-03-26T01:41:46;97207.94;;;9.41;78.73
5609;BME280;2826;51.354;9.588;2023-03-26T01:44:19;97207.09;;;9.40;78.35
5609;BME280;2826;51.354;9.588;2023-03-26T01:46:49;97204.81;;;9.34;78.31
5609;BME280;2826;51.354;9.588;2023-03-26T01:49:18;97209.84;;;9.37;78.68
5609;BME280;2826;51.354;9.588;2023-03-26T01:51:45;97209.66;;;9.40;78.39
5609;BME280;2826;51.354;9.588;2023-03-26T01:54:14;97203.03;;;9.35;78.03
5609;BME280;2826;51.354;9.588;2023-03-26T01:56:50;97206.34;;;9.38;77.78
5609;BME280;2826;51.354;9.588;2023-03-26T01:59:33;97203.56;;;9.41;78.01
5609;BME280;2826;51.354;9.588;2023-03-26T02:02:09;97203.91;;;9.35;77.75
5609;BME280;2826;51.354;9.588;2023-03-26T02:04:42;97210.00;;;9.34;77.31
5609;BME280;2826;51.354;9.588;2023-03-26T02:07:19;97198.88;;;9.32;77.30
5609;BME280;2826;51.354;9.588;2023-03-26T02:09:49;97206.81;;;9.29;77.28
5609;BME280;2826;51.354;9.588;2023-03-26T02:12:21;97199.78;;;9.31;77.56
5609;BME280;2826;51.354;9.588;2023-03-26T02:14:50;97199.94;;;9.28;77.51
5609;BME280;2826;51.354;9.588;2023-03-26T02:17:16;97194.94;;;9.25;77.11
5609;BME280;2826;51.354;9.588;2023-03-26T02:19:43;97171.25;;;9.15;77.18
5609;BME280;2826;51.354;9.588;2023-03-26T02:22:12;97188.63;;;9.31;77.20
5609;BME280;2826;51.354;9.588;2023-03-26T02:24:43;97192.88;;;9.32;76.58
5609;BME280;2826;51.354;9.588;2023-03-26T02:27:10;97185.41;;;9.25;76.74
5609;BME280;2826;51.354;9.588;2023-03-26T02:29:39;97178.72;;;9.21;76.71
5609;BME280;2826;51.354;9.588;2023-03-26T02:32:10;97180.47;;;9.21;76.45
5609;BME280;2826;51.354;9.588;2023-03-26T02:34:37;97175.16;;;9.24;76.14
5609;BME280;2826;51.354;9.588;2023-03-26T02:37:04;97172.72;;;9.21;76.39
5609;BME280;2826;51.354;9.588;2023-03-26T02:39:31;97172.47;;;9.25;76.28
5609;BME280;2826;51.354;9.588;2023-03-26T02:42:02;97167.81;;;9.14;76.54
5609;BME280;2826;51.354;9.588;2023-03-26T02:44:34;97166.63;;;9.22;76.28
5609;BME280;2826;51.354;9.588;2023-03-26T02:47:20;97172.19;;;9.14;76.22
5609;BME280;2826;51.354;9.588;2023-03-26T02:50:06;97170.19;;;9.19;76.13
5609;BME280;2826;51.354;9.588;2023-03-26T02:52:56;97166.94;;;9.15;76.20
5609;BME280;2826;51.354;9.588;2023-03-26T02:55:24;97165.25;;;9.14;75.92
5609;BME280;2826;51.354;9.588;2023-03-26T02:57:55;97153.47;;;9.09;76.03
5609;BME280;2826;51.354;9.588;2023-03-26T03:00:28;97165.56;;;9.08;76.55
5609;BME280;2826;51.354;9.588;2023-03-26T03:03:16;97153.69;;;9.04;76.68
5609;BME280;2826;51.354;9.588;2023-03-26T03:05:58;97150.72;;;9.12;76.44
5609;BME280;2826;51.354;9.588;2023-03-26T03:08:30;97153.03;;;9.00;76.86
5609;BME280;2826;51.354;9.588;2023-03-26T03:11:09;97145.88;;;9.06;76.86
5609;BME280;2826;51.354;9.588;2023-03-26T03:13:45;97151.09;;;9.04;76.81
5609;BME280;2826;51.354;9.588;2023-03-26T03:16:19;97143.81;;;8.95;77.16
5609;BME280;2826;51.354;9.588;2023-03-26T03:18:48;97140.38;;;8.94;77.33
5609;BME280;2826;51.354;9.588;2023-03-26T03:21:21;97138.84;;;8.90;77.78
5609;BME280;2826;51.354;9.588;2023-03-26T03:23:48;97138.50;;;8.98;77.21
5609;BME280;2826;51.354;9.588;2023-03-26T03:26:17;97142.06;;;8.95;77.42
5609;BME280;2826;51.354;9.588;2023-03-26T03:28:51;97135.06;;;8.97;77.46
5609;BME280;2826;51.354;9.588;2023-03-26T03:31:18;97145.66;;;8.93;77.39
5609;BME280;2826;51.354;9.588;2023-03-26T03:33:45;97136.00;;;8.96;77.33
5609;BME280;2826;51.354;9.588;2023-03-26T03:36:17;97129.81;;;8.99;77.06
5609;BME280;2826;51.354;9.588;2023-03-26T03:38:49;97131.09;;;8.90;78.02
5609;BME280;2826;51.354;9.588;2023-03-26T03:41:18;97124.78;;;8.96;77.96
5609;BME280;2826;51.354;9.588;2023-03-26T03:43:45;97130.97;;;8.93;78.22
5609;BME280;2826;51.354;9.588;2023-03-26T03:46:21;97123.97;;;8.95;78.07
5609;BME280;2826;51.354;9.588;2023-03-26T03:48:48;97120.75;;;8.90;78.65
5609;BME280;2826;51.354;9.588;2023-03-26T03:51:21;97121.69;;;8.89;78.79
5609;BME280;2826;51.354;9.588;2023-03-26T03:53:54;97116.38;;;8.92;78.73
5609;BME280;2826;51.354;9.588;2023-03-26T03:56:40;97117.28;;;8.91;79.05
5609;BME280;2826;51.354;9.588;2023-03-26T03:59:25;97119.69;;;8.94;79.22
5609;BME280;2826;51.354;9.588;2023-03-26T04:01:52;97120.53;;;8.95;79.23
5609;BME280;2826;51.354;9.588;2023-03-26T04:04:32;97116.13;;;8.97;79.77
5609;BME280;2826;51.354;9.588;2023-03-26T04:07:03;97112.47;;;9.01;79.37
5609;BME280;2826;51.354;9.588;2023-03-26T04:09:53;97109.75;;;9.04;79.27
5609;BME280;2826;51.354;9.588;2023-03-26T04:12:26;97089.75;;;8.90;79.56
5609;BME280;2826;51.354;9.588;2023-03-26T04:14:57;97109.53;;;8.91;79.57
5609;BME280;2826;51.354;9.588;2023-03-26T04:17:24;97107.28;;;9.01;79.79
5609;BME280;2826;51.354;9.588;2023-03-26T04:19:53;97108.16;;;9.01;79.82
5609;BME280;2826;51.354;9.588;2023-03-26T04:22:26;97103.91;;;9.00;79.70
5609;BME280;2826;51.354;9.588;2023-03-26T04:25:01;97104.63;;;9.02;80.20
5609;BME280;2826;51.354;9.588;2023-03-26T04:27:42;97098.78;;;8.99;80.23
5609;BME280;2826;51.354;9.588;2023-03-26T04:30:20;97089.97;;;9.03;80.03
5609;BME280;2826;51.354;9.588;2023-03-26T04:32:58;97098.13;;;8.95;80.80
5609;BME280;2826;51.354;9.588;2023-03-26T04:35:32;97086.63;;;9.01;80.43
5609;BME280;2826;51.354;9.588;2023-03-26T04:38:02;97086.63;;;9.01;80.23
5609;BME280;2826;51.354;9.588;2023-03-26T04:40:35;97082.13;;;9.05;80.22
5609;BME280;2826;51.354;9.588;2023-03-26T04:43:22;97080.38;;;9.05;80.44
5609;BME280;2826;51.354;9.588;2023-03-26T04:46:07;97075.28;;;9.04;80.51
5609;BME280;2826;51.354;9.588;2023-03-26T04:48:43;97070.94;;;9.04;80.38
5609;BME280;2826;51.354;9.588;2023-03-26T04:51:12;97072.78;;;9.02;80.73
5609;BME280;2826;51.354;9.588;2023-03-26T04:53:49;97070.94;;;9.04;80.69
5609;BME280;2826;51.354;9.588;2023-03-26T04:56:33;97062.44;;;9.02;80.98
5609;BME280;2826;51.354;9.588;2023-03-26T04:59:17;97062.19;;;9.07;81.09
5609;BME280;2826;51.354;9.588;2023-03-26T05:01:44;97061.97;;;9.11;80.98
5609;BME280;2826;51.354;9.588;2023-03-26T05:04:13;97057.31;;;9.18;80.70
5609;BME280;2826;51.354;9.588;2023-03-26T05:06:40;97058.13;;;9.19;80.66
5609;BME280;2826;51.354;9.588;2023-03-26T05:09:19;97051.22;;;9.19;80.63
5609;BME280;2826;51.354;9.588;2023-03-26T05:12:06;97050.31;;;9.20;80.70
5609;BME280;2826;51.354;9.588;2023-03-26T05:14:44;97048.56;;;9.21;80.69
5609;BME280;2826;51.354;9.588;2023-03-26T05:17:17;97043.97;;;9.26;80.41
5609;BME280;2826;51.354;9.588;2023-03-26T05:19:46;97037.97;;;9.25;80.26
5609;BME280;2826;51.354;9.588;2023-03-26T05:22:13;97036.44;;;9.21;80.53
5609;BME280;2826;51.354;9.588;2023-03-26T05:25:01;97035.78;;;9.18;81.04
5609;BME280;2826;51.354;9.588;2023-03-26T05:27:28;97037.53;;;9.17;80.86
5609;BME280;2826;51.354;9.588;2023-03-26T05:29:59;97030.75;;;9.14;81.04
5609;BME280;2826;51.354;9.588;2023-03-26T05:32:26;97022.78;;;9.19;81.13
5609;BME280;2826;51.354;9.588;2023-03-26T05:34:52;97031.19;;;9.23;80.94
5609;BME280;2826;51.354;9.588;2023-03-26T05:37:19;97019.97;;;9.24;80.68
5609;BME280;2826;51.354;9.588;2023-03-26T05:40:01;97030.03;;;9.28;80.69
5609;BME280;2826;51.354;9.588;2023-03-26T05:42:45;97023.78;;;9.33;80.82
5609;BME280;2826;51.354;9.588;2023-03-26T05:45:32;97024.22;;;9.41;80.42
5609;BME280;2826;51.354;9.588;2023-03-26T05:48:08;97026.81;;;9.41;80.65
5609;BME280;2826;51.354;9.588;2023-03-26T05:50:34;97029.81;;;9.49;80.19
5609;BME280;2826;51.354;9.588;2023-03-26T05:53:01;97023.72;;;9.50;79.81
5609;BME280;2826;51.354;9.588;2023-03-26T05:55:49;97011.78;;;9.48;80.09
5609;BME280;2826;51.354;9.588;2023-03-26T05:58:40;97008.19;;;9.34;80.46
5609;BME280;2826;51.354;9.588;2023-03-26T06:01:46;97010.63;;;9.37;80.29
5609;BME280;2826;51.354;9.588;2023-03-26T06:04:51;97003.75;;;9.36;80.42
5609;BME280;2826;51.354;9.588;2023-03-26T06:07:20;97008.03;;;9.37;80.39
5609;BME280;2826;51.354;9.588;2023-03-26T06:10:04;97006.53;;;9.33;80.30
5609;BME280;2826;51.354;9.588;2023-03-26T06:12:32;96996.84;;;9.37;80.32
5609;BME280;2826;51.354;9.588;2023-03-26T06:14:58;97010.44;;;9.40;80.22
5609;BME280;2826;51.354;9.588;2023-03-26T06:17:38;97000.84;;;9.43;79.96
5609;BME280;2826;51.354;9.588;2023-03-26T06:20:23;97003.09;;;9.49;79.69
5609;BME280;2826;51.354;9.588;2023-03-26T06:22:54;96996.50;;;9.43;79.77
5609;BME280;2826;51.354;9.588;2023-03-26T06:25:39;96991.81;;;9.50;79.58
5609;BME280;2826;51.354;9.588;2023-03-26T06:28:21;96981.91;;;9.58;79.51
5609;BME280;2826;51.354;9.588;2023-03-26T06:31:03;96983.09;;;9.69;79.41
5609;BME280;2826;51.354;9.588;2023-03-26T06:33:41;96985.03;;;9.79;79.05
5609;BME280;2826;51.354;9.588;2023-03-26T06:36:10;96982.06;;;9.87;78.56
5609;BME280;2826;51.354;9.588;2023-03-26T06:38:37;96979.53;;;9.86;78.33
5609;BME280;2826;51.354;9.588;2023-03-26T06:41:05;96980.38;;;9.86;77.83
5609;BME280;2826;51.354;9.588;2023-03-26T06:43:52;96985.88;;;9.96;77.16
5609;BME280;2826;51.354;9.588;2023-03-26T06:46:37;96982.84;;;10.04;76.90
5609;BME280;2826;51.354;9.588;2023-03-26T06:49:24;96984.41;;;10.06;76.87
5609;BME280;2826;51.354;9.588;2023-03-26T06:52:14;96989.19;;;10.14;76.07
5609;BME280;2826;51.354;9.588;2023-03-26T06:54:59;96968.47;;;10.14;75.91
5609;BME280;2826;51.354;9.588;2023-03-26T06:57:47;96972.00;;;10.28;75.73
5609;BME280;2826;51.354;9.588;2023-03-26T07:00:54;96975.66;;;10.40;76.08
5609;BME280;2826;51.354;9.588;2023-03-26T07:03:39;96972.28;;;10.54;75.29
5609;BME280;2826;51.354;9.588;2023-03-26T07:06:25;96972.84;;;10.59;75.34
5609;BME280;2826;51.354;9.588;2023-03-26T07:09:10;96971.81;;;10.62;74.79
5609;BME280;2826;51.354;9.588;2023-03-26T07:11:56;96973.97;;;10.69;74.77
5609;BME280;2826;51.354;9.588;2023-03-26T07:14:48;96967.97;;;10.83;74.33
5609;BME280;2826;51.354;9.588;2023-03-26T07:17:37;96968.59;;;11.02;74.67
5609;BME280;2826;51.354;9.588;2023-03-26T07:20:26;96970.25;;;11.17;73.71
5609;BME280;2826;51.354;9.588;2023-03-26T07:22:53;96961.91;;;11.27;73.10
5609;BME280;2826;51.354;9.588;2023-03-26T07:25:40;96957.53;;;11.42;72.95
5609;BME280;2826;51.354;9.588;2023-03-26T07:28:28;96954.25;;;11.53;71.51
5609;BME280;2826;51.354;9.588;2023-03-26T07:31:19;96951.25;;;11.59;71.50
5609;BME280;2826;51.354;9.588;2023-03-26T07:34:33;96932.53;;;11.54;70.97
5609;BME280;2826;51.354;9.588;2023-03-26T07:37:24;96941.75;;;11.72;71.34
5609;BME280;2826;51.354;9.588;2023-03-26T07:40:18;96943.84;;;11.80;70.33
5609;BME280;2826;51.354;9.588;2023-03-26T07:43:13;96935.88;;;11.83;70.45
5609;BME280;2826;51.354;9.588;2023-03-26T07:46:01;96935.97;;;11.82;69.47
5609;BME280;2826;51.354;9.588;2023-03-26T07:48:46;96932.22;;;11.73;69.36
5609;BME280;2826;51.354;9.588;2023-03-26T07:51:32;96942.38;;;11.76;69.42
5609;BME280;2826;51.354;9.588;2023-03-26T07:54:09;96917.84;;;11.67;69.41
5609;BME280;2826;51.354;9.588;2023-03-26T07:56:58;96935.53;;;11.75;69.58
5609;BME280;2826;51.354;9.588;2023-03-26T07:59:56;96926.78;;;11.76;69.10
5609;BME280;2826;51.354;9.588;2023-03-26T08:05:58;96940.28;;;11.68;68.70
5609;BME280;2826;51.354;9.588;2023-03-26T08:08:41;96938.81;;;11.64;69.15
5609;BME280;2826;51.354;9.588;2023-03-26T08:11:31;96932.91;;;11.62;68.30
5609;BME280;2826;51.354;9.588;2023-03-26T08:14:15;96928.81;;;11.58;69.14
5609;BME280;2826;51.354;9.588;2023-03-26T08:16:50;96912.06;;;11.49;69.42
5609;BME280;2826;51.354;9.588;2023-03-26T08:19:32;96919.38;;;11.57;69.31
5609;BME280;2826;51.354;9.588;2023-03-26T08:22:10;96914.63;;;11.63;69.97
5609;BME280;2826;51.354;9.588;2023-03-26T08:24:44;96917.75;;;11.69;69.74
5609;BME280;2826;51.354;9.588;2023-03-26T08:27:21;96913.94;;;11.74;69.74
5609;BME280;2826;51.354;9.588;2023-03-26T08:29:56;96913.03;;;11.88;69.59
5609;BME280;2826;51.354;9.588;2023-03-26T08:32:27;96913.03;;;11.88;69.15
5609;BME280;2826;51.354;9.588;2023-03-26T08:34:54;96907.44;;;11.95;69.28
5609;BME280;2826;51.354;9.588;2023-03-26T08:37:21;96906.94;;;12.02;68.75
5609;BME280;2826;51.354;9.588;2023-03-26T08:39:49;96899.34;;;11.99;68.04
5609;BME280;2826;51.354;9.588;2023-03-26T08:45:51;96888.22;;;11.97;68.36
5609;BME280;2826;51.354;9.588;2023-03-26T08:48:57;96887.47;;;11.95;68.59
5609;BME280;2826;51.354;9.588;2023-03-26T08:51:43;96882.19;;;11.97;68.84
5609;BME280;2826;51.354;9.588;2023-03-26T08:54:41;96882.47;;;11.92;68.84
5609;BME280;2826;51.354;9.588;2023-03-26T09:00:38;96880.94;;;12.02;68.63
5609;BME280;2826;51.354;9.588;2023-03-26T09:03:16;96879.53;;;12.11;67.98
5609;BME280;2826;51.354;9.588;2023-03-26T09:15:19;96866.75;;;12.21;67.41
5609;BME280;2826;51.354;9.588;2023-03-26T09:18:06;96860.22;;;12.28;67.53
5609;BME280;2826;51.354;9.588;2023-03-26T09:24:02;96854.38;;;12.38;67.58
5609;BME280;2826;51.354;9.588;2023-03-26T09:26:44;96858.22;;;12.45;67.67
5609;BME280;2826;51.354;9.588;2023-03-26T09:35:37;96855.94;;;12.40;66.77
5609;BME280;2826;51.354;9.588;2023-03-26T09:38:16;96849.09;;;12.39;67.42
5609;BME280;2826;51.354;9.588;2023-03-26T09:40:54;96852.09;;;12.46;66.39
5609;BME280;2826;51.354;9.588;2023-03-26T09:43:38;96846.06;;;12.46;66.99
5609;BME280;2826;51.354;9.588;2023-03-26T09:46:19;96846.25;;;12.43;67.56
5609;BME280;2826;51.354;9.588;2023-03-26T09:49:12;96842.50;;;12.47;67.15
5609;BME280;2826;51.354;9.588;2023-03-26T09:51:54;96841.06;;;12.43;66.57
5609;BME280;2826;51.354;9.588;2023-03-26T09:54:59;96836.81;;;12.28;68.05
5609;BME280;2826;51.354;9.588;2023-03-26T09:57:44;96845.97;;;12.21;69.21
5609;BME280;2826;51.354;9.588;2023-03-26T10:00:32;96833.50;;;12.13;68.77
5609;BME280;2826;51.354;9.588;2023-03-26T10:03:18;96844.94;;;12.11;70.15
5609;BME280;2826;51.354;9.588;2023-03-26T10:05:54;96839.72;;;12.11;70.93
5609;BME280;2826;51.354;9.588;2023-03-26T10:08:37;96832.34;;;12.18;71.03
5609;BME280;2826;51.354;9.588;2023-03-26T10:11:11;96839.81;;;12.22;71.96
5609;BME280;2826;51.354;9.588;2023-03-26T10:13:53;96787.63;;;11.99;72.00
5609;BME280;2826;51.354;9.588;2023-03-26T10:16:25;96830.16;;;12.37;71.72
5609;BME280;2826;51.354;9.588;2023-03-26T10:19:05;96833.91;;;12.46;71.93
5609;BME280;2826;51.354;9.588;2023-03-26T10:21:40;96823.59;;;12.45;71.98
5609;BME280;2826;51.354;9.588;2023-03-26T10:24:18;96828.81;;;12.45;71.39
5609;BME280;2826;51.354;9.588;2023-03-26T10:26:55;96824.44;;;12.32;71.37
5609;BME280;2826;51.354;9.588;2023-03-26T10:29:36;96821.31;;;12.27;71.94
5609;BME280;2826;51.354;9.588;2023-03-26T10:32:18;96823.28;;;12.23;71.26
5609;BME280;2826;51.354;9.588;2023-03-26T10:34:53;96821.00;;;12.06;71.75
5609;BME280;2826;51.354;9.588;2023-03-26T10:37:31;96819.94;;;11.95;72.46
5609;BME280;2826;51.354;9.588;2023-03-26T10:40:15;96825.03;;;11.84;73.76
5609;BME280;2826;51.354;9.588;2023-03-26T10:42:58;96827.72;;;11.82;73.83
5609;BME280;2826;51.354;9.588;2023-03-26T10:45:36;96807.75;;;11.70;73.37
5609;BME280;2826;51.354;9.588;2023-03-26T10:48:26;96822.44;;;11.84;73.34
5609;BME280;2826;51.354;9.588;2023-03-26T10:51:19;96820.97;;;11.80;71.15
5609;BME280;2826;51.354;9.588;2023-03-26T10:53:53;96820.03;;;11.81;71.92
5609;BME280;2826;51.354;9.588;2023-03-26T10:56:32;96825.66;;;11.74;71.58
5609;BME280;2826;51.354;9.588;2023-03-26T10:59:05;96825.00;;;11.71;72.92
5609;BME280;2826;51.354;9.588;2023-03-26T11:01:40;96826.66;;;11.72;72.69
5609;BME280;2826;51.354;9.588;2023-03-26T11:04:20;96820.66;;;11.71;73.06
5609;BME280;2826;51.354;9.588;2023-03-26T11:06:56;96817.09;;;11.72;72.60
5609;BME280;2826;51.354;9.588;2023-03-26T11:09:34;96824.19;;;11.70;73.21
5609;BME280;2826;51.354;9.588;2023-03-26T11:12:14;96816.59;;;11.67;74.08
5609;BME280;2826;51.354;9.588;2023-03-26T11:14:50;96820.75;;;11.70;74.07
5609;BME280;2826;51.354;9.588;2023-03-26T11:17:26;96817.63;;;11.65;73.96
5609;BME280;2826;51.354;9.588;2023-03-26T11:20:01;96814.38;;;11.61;74.80
5609;BME280;2826;51.354;9.588;2023-03-26T11:22:37;96819.56;;;11.61;75.64
5609;BME280;2826;51.354;9.588;2023-03-26T11:25:26;96811.69;;;11.62;75.98
5609;BME280;2826;51.354;9.588;2023-03-26T11:28:12;96813.78;;;11.70;75.57
5609;BME280;2826;51.354;9.588;2023-03-26T11:30:45;96814.22;;;11.77;74.70
5609;BME280;2826;51.354;9.588;2023-03-26T11:33:17;96810.44;;;11.68;74.62
5609;BME280;2826;51.354;9.588;2023-03-26T11:35:46;96807.03;;;11.68;74.32
5609;BME280;2826;51.354;9.588;2023-03-26T11:38:17;96802.75;;;11.67;74.10
5609;BME280;2826;51.354;9.588;2023-03-26T11:40:48;96806.59;;;11.61;74.97
5609;BME280;2826;51.354;9.588;2023-03-26T11:43:40;96803.78;;;11.51;74.96
5609;BME280;2826;51.354;9.588;2023-03-26T11:46:09;96799.19;;;11.42;75.75
5609;BME280;2826;51.354;9.588;2023-03-26T11:48:39;96806.22;;;11.40;74.93
5609;BME280;2826;51.354;9.588;2023-03-26T11:51:13;96798.13;;;11.31;74.73
5609;BME280;2826;51.354;9.588;2023-03-26T11:53:44;96797.41;;;11.29;75.03
5609;BME280;2826;51.354;9.588;2023-03-26T11:56:15;96796.22;;;11.20;75.30
5609;BME280;2826;51.354;9.588;2023-03-26T11:58:50;96799.75;;;11.19;75.26
5609;BME280;2826;51.354;9.588;2023-03-26T12:01:24;96796.53;;;11.29;75.81
5609;BME280;2826;51.354;9.588;2023-03-26T12:03:57;96795.41;;;11.33;76.26
5609;BME280;2826;51.354;9.588;2023-03-26T12:06:28;96785.03;;;11.33;74.96
5609;BME280;2826;51.354;9.588;2023-03-26T12:08:57;96782.84;;;11.27;74.60
5609;BME280;2826;51.354;9.588;2023-03-26T12:11:25;96787.09;;;11.28;74.91
5609;BME280;2826;51.354;9.588;2023-03-26T12:13:59;96790.50;;;11.15;73.92
5609;BME280;2826;51.354;9.588;2023-03-26T12:16:26;96792.47;;;11.11;73.90
5609;BME280;2826;51.354;9.588;2023-03-26T12:18:58;96784.69;;;11.11;75.00
5609;BME280;2826;51.354;9.588;2023-03-26T12:21:26;96779.47;;;11.11;75.89
5609;BME280;2826;51.354;9.588;2023-03-26T12:23:55;96781.47;;;11.08;76.14
5609;BME280;2826;51.354;9.588;2023-03-26T12:26:34;96780.50;;;11.09;76.23
5609;BME280;2826;51.354;9.588;2023-03-26T12:29:07;96775.41;;;11.07;75.96
5609;BME280;2826;51.354;9.588;2023-03-26T12:31:47;96776.84;;;10.98;76.52
5609;BME280;2826;51.354;9.588;2023-03-26T12:34:17;96763.81;;;10.85;76.49
5609;BME280;2826;51.354;9.588;2023-03-26T12:36:50;96776.88;;;10.84;76.68
5609;BME280;2826;51.354;9.588;2023-03-26T12:39:35;96769.59;;;10.76;77.07
5609;BME280;2826;51.354;9.588;2023-03-26T12:42:04;96778.97;;;10.64;76.80
5609;BME280;2826;51.354;9.588;2023-03-26T12:44:35;96770.47;;;10.48;76.96
5609;BME280;2826;51.354;9.588;2023-03-26T12:47:14;96777.50;;;10.31;77.70
5609;BME280;2826;51.354;9.588;2023-03-26T12:49:42;96780.38;;;10.26;77.71
5609;BME280;2826;51.354;9.588;2023-03-26T12:52:25;96771.41;;;10.32;77.90
5609;BME280;2826;51.354;9.588;2023-03-26T12:55:02;96757.13;;;10.39;78.74
5609;BME280;2826;51.354;9.588;2023-03-26T12:57:35;96761.03;;;10.47;79.06
5609;BME280;2826;51.354;9.588;2023-03-26T13:00:17;96759.00;;;10.52;78.46
5609;BME280;2826;51.354;9.588;2023-03-26T13:03:03;96751.13;;;10.39;78.76
5609;BME280;2826;51.354;9.588;2023-03-26T13:05:42;96758.06;;;10.53;78.23
5609;BME280;2826;51.354;9.588;2023-03-26T13:08:28;96756.94;;;10.57;78.30
5609;BME280;2826;51.354;9.588;2023-03-26T13:11:02;96761.94;;;10.60;78.29
5609;BME280;2826;51.354;9.588;2023-03-26T13:13:49;96759.34;;;10.60;78.26
5609;BME280;2826;51.354;9.588;2023-03-26T13:16:29;96746.56;;;10.57;78.37
5609;BME280;2826;51.354;9.588;2023-03-26T13:19:00;96702.81;;;10.38;78.44
5609;BME280;2826;51.354;9.588;2023-03-26T13:21:39;96737.50;;;10.64;78.70
5609;BME280;2826;51.354;9.588;2023-03-26T13:24:20;96737.50;;;10.64;76.81
5609;BME280;2826;51.354;9.588;2023-03-26T13:26:59;96716.84;;;10.63;77.08
5609;BME280;2826;51.354;9.588;2023-03-26T13:29:37;96722.75;;;10.79;76.83
5609;BME280;2826;51.354;9.588;2023-03-26T13:32:13;96720.59;;;10.86;77.01
5609;BME280;2826;51.354;9.588;2023-03-26T13:34:58;96714.81;;;10.95;76.76
5609;BME280;2826;51.354;9.588;2023-03-26T13:37:32;96711.38;;;10.95;74.81
5609;BME280;2826;51.354;9.588;2023-03-26T13:40:14;96706.28;;;10.93;74.22
5609;BME280;2826;51.354;9.588;2023-03-26T13:42:49;96707.34;;;11.04;74.65
5609;BME280;2826;51.354;9.588;2023-03-26T13:45:31;96698.88;;;11.15;74.18
5609;BME280;2826;51.354;9.588;2023-03-26T13:48:01;96703.56;;;11.22;73.10
5609;BME280;2826;51.354;9.588;2023-03-26T13:50:32;96700.63;;;11.27;73.03
5609;BME280;2826;51.354;9.588;2023-03-26T13:53:06;96703.78;;;11.32;72.52
5609;BME280;2826;51.354;9.588;2023-03-26T13:55:37;96701.38;;;11.42;72.73
5609;BME280;2826;51.354;9.588;2023-03-26T13:58:12;96697.56;;;11.48;72.36
5609;BME280;2826;51.354;9.588;2023-03-26T14:00:50;96692.06;;;11.53;71.85
5609;BME280;2826;51.354;9.588;2023-03-26T14:03:24;96692.47;;;11.59;72.04
5609;BME280;2826;51.354;9.588;2023-03-26T14:05:54;96689.03;;;11.59;71.35
5609;BME280;2826;51.354;9.588;2023-03-26T14:08:26;96690.41;;;11.65;71.66
5609;BME280;2826;51.354;9.588;2023-03-26T14:11:02;96681.47;;;11.69;71.90
5609;BME280;2826;51.354;9.588;2023-03-26T14:13:35;96679.69;;;11.69;71.34
5609;BME280;2826;51.354;9.588;2023-03-26T14:16:10;96669.13;;;11.59;71.11
5609;BME280;2826;51.354;9.588;2023-03-26T14:18:45;96672.31;;;11.63;72.05
5609;BME280;2826;51.354;9.588;2023-03-26T14:21:37;96683.13;;;11.70;72.25
5609;BME280;2826;51.354;9.588;2023-03-26T14:24:25;96671.50;;;11.75;73.01
5609;BME280;2826;51.354;9.588;2023-03-26T14:27:07;96666.59;;;11.71;72.10
5609;BME280;2826;51.354;9.588;2023-03-26T14:29:51;96671.25;;;11.79;71.17
5609;BME280;2826;51.354;9.588;2023-03-26T14:32:40;96662.56;;;11.80;71.39
5609;BME280;2826;51.354;9.588;2023-03-26T14:35:33;96663.28;;;11.69;71.12
5609;BME280;2826;51.354;9.588;2023-03-26T14:38:29;96663.06;;;11.85;71.45
5609;BME280;2826;51.354;9.588;2023-03-26T14:41:12;96659.41;;;11.87;71.08
5609;BME280;2826;51.354;9.588;2023-03-26T14:44:08;96655.28;;;11.85;70.60
5609;BME280;2826;51.354;9.588;2023-03-26T14:46:46;96652.16;;;11.80;69.95
5609;BME280;2826;51.354;9.588;2023-03-26T14:52:35;96659.97;;;11.80;70.49
5609;BME280;2826;51.354;9.588;2023-03-26T14:55:13;96658.50;;;11.75;69.93